createdAt,value
2022-10-31T00:00:30.861Z,12.95
2022-10-31T00:02:57.763Z,12.92
2022-10-31T00:05:24.455Z,12.90
2022-10-31T00:07:53.726Z,12.89
2022-10-31T00:10:20.229Z,12.88
2022-10-31T00:12:46.920Z,12.88
2022-10-31T00:15:13.510Z,12.87
2022-10-31T00:17:40.050Z,12.87
2022-10-31T00:20:07.208Z,12.87
2022-10-31T00:22:33.872Z,12.85
2022-10-31T00:25:00.477Z,12.86
2022-10-31T00:27:26.979Z,12.86
2022-10-31T00:29:55.011Z,12.84
2022-10-31T00:32:21.698Z,12.84
2022-10-31T00:34:48.468Z,12.83
2022-10-31T00:37:15.029Z,12.83
2022-10-31T00:39:43.713Z,12.81
2022-10-31T00:42:10.181Z,12.81
2022-10-31T00:44:36.733Z,12.80
2022-10-31T00:47:03.246Z,12.80
2022-10-31T00:49:29.820Z,12.77
2022-10-31T00:51:56.383Z,12.76
2022-10-31T00:54:22.965Z,12.76
2022-10-31T00:56:49.913Z,12.73
2022-10-31T00:59:16.430Z,12.71
2022-10-31T01:01:43.239Z,12.70
2022-10-31T01:04:09.871Z,12.67
2022-10-31T01:06:36.413Z,12.65
2022-10-31T01:09:02.979Z,12.62
2022-10-31T01:11:29.585Z,12.61
2022-10-31T01:13:56.080Z,12.60
2022-10-31T01:16:25.053Z,12.57
2022-10-31T01:18:52.099Z,12.54
2022-10-31T01:21:25.520Z,12.51
2022-10-31T01:23:54.998Z,12.49
2022-10-31T01:26:24.098Z,12.50
2022-10-31T01:28:53.710Z,12.49
2022-10-31T01:31:22.883Z,12.47
2022-10-31T01:33:49.904Z,12.45
2022-10-31T01:36:18.794Z,12.43
2022-10-31T01:38:47.419Z,12.42
2022-10-31T01:41:16.601Z,12.42
2022-10-31T01:43:47.437Z,12.40
2022-10-31T01:46:16.839Z,12.39
2022-10-31T01:48:43.742Z,12.37
2022-10-31T01:51:15.174Z,12.36
2022-10-31T01:53:42.278Z,12.35
2022-10-31T01:56:09.727Z,12.32
2022-10-31T01:58:38.749Z,12.33
2022-10-31T02:01:08.064Z,12.30
2022-10-31T02:03:36.306Z,12.29
2022-10-31T02:06:07.334Z,12.27
2022-10-31T02:08:36.735Z,12.26
2022-10-31T02:11:03.301Z,12.23
2022-10-31T02:13:30.513Z,12.22
2022-10-31T02:15:59.591Z,12.20
2022-10-31T02:18:30.260Z,12.19
2022-10-31T02:21:23.365Z,12.15
2022-10-31T02:24:17.840Z,12.13
2022-10-31T02:26:54.885Z,12.11
2022-10-31T02:29:54.188Z,12.09
2022-10-31T02:32:54.776Z,12.06
2022-10-31T02:35:40.978Z,12.05
2022-10-31T02:38:24.133Z,12.03
2022-10-31T02:41:09.063Z,12.03
2022-10-31T02:44:06.650Z,11.99
2022-10-31T02:46:40.818Z,11.97
2022-10-31T02:49:33.679Z,11.95
2022-10-31T02:52:00.198Z,11.94
2022-10-31T02:54:28.988Z,11.91
2022-10-31T02:57:05.381Z,11.90
2022-10-31T02:59:36.286Z,11.89
2022-10-31T03:02:21.924Z,11.88
2022-10-31T03:05:21.132Z,11.85
2022-10-31T03:08:00.673Z,11.83
2022-10-31T03:10:56.802Z,11.82
2022-10-31T03:13:46.280Z,11.77
2022-10-31T03:16:25.890Z,11.78
2022-10-31T03:19:06.128Z,11.75
2022-10-31T03:21:46.359Z,11.73
2022-10-31T03:24:14.397Z,11.73
2022-10-31T03:26:49.480Z,11.72
2022-10-31T03:29:20.370Z,11.71
2022-10-31T03:31:52.289Z,11.70
2022-10-31T03:34:20.646Z,11.71
2022-10-31T03:36:51.535Z,11.70
2022-10-31T03:39:21.663Z,11.68
2022-10-31T03:41:55.990Z,11.69
2022-10-31T03:44:24.734Z,11.68
2022-10-31T03:46:58.982Z,11.68
2022-10-31T03:49:25.830Z,11.68
2022-10-31T03:52:03.637Z,11.67
2022-10-31T03:54:42.789Z,11.66
2022-10-31T03:57:35.855Z,11.64
2022-10-31T04:00:11.715Z,11.64
2022-10-31T04:02:54.990Z,11.61
2022-10-31T04:05:22.423Z,11.62
2022-10-31T04:07:54.486Z,11.61
2022-10-31T04:10:23.745Z,11.60
2022-10-31T04:12:59.065Z,11.59
2022-10-31T04:15:33.866Z,11.58
2022-10-31T04:18:02.593Z,11.57
2022-10-31T04:20:38.109Z,11.54
2022-10-31T04:23:14.662Z,11.55
2022-10-31T04:25:41.535Z,11.53
2022-10-31T04:28:08.363Z,11.52
2022-10-31T04:30:38.041Z,11.49
2022-10-31T04:33:04.621Z,11.49
2022-10-31T04:35:31.210Z,11.47
2022-10-31T04:37:57.743Z,11.45
2022-10-31T04:40:24.323Z,11.43
2022-10-31T04:43:15.314Z,11.39
2022-10-31T04:45:44.010Z,11.38
2022-10-31T04:48:11.586Z,11.36
2022-10-31T04:50:40.193Z,11.35
2022-10-31T04:53:07.463Z,11.33
2022-10-31T04:55:41.848Z,11.30
2022-10-31T04:58:18.888Z,11.28
2022-10-31T05:00:46.291Z,11.25
2022-10-31T05:03:14.245Z,11.16
2022-10-31T05:05:40.848Z,11.19
2022-10-31T05:08:07.393Z,11.18
2022-10-31T05:10:33.931Z,11.15
2022-10-31T05:13:03.919Z,11.12
2022-10-31T05:15:50.496Z,11.08
2022-10-31T05:18:16.974Z,11.05
2022-10-31T05:20:43.617Z,11.04
2022-10-31T05:23:17.690Z,11.01
2022-10-31T05:25:44.341Z,11.00
2022-10-31T05:28:12.321Z,10.98
2022-10-31T05:30:39.385Z,10.95
2022-10-31T05:33:10.346Z,10.94
2022-10-31T05:36:08.780Z,10.93
2022-10-31T05:38:41.534Z,10.91
2022-10-31T05:41:16.633Z,10.90
2022-10-31T05:43:46.719Z,10.88
2022-10-31T05:46:15.978Z,10.87
2022-10-31T05:49:02.853Z,10.85
2022-10-31T05:51:48.317Z,10.83
2022-10-31T05:54:16.024Z,10.83
2022-10-31T05:56:45.109Z,10.81
2022-10-31T05:59:12.168Z,10.81
2022-10-31T06:01:39.714Z,10.81
2022-10-31T06:04:13.507Z,10.80
2022-10-31T06:06:40.183Z,10.79
2022-10-31T06:09:07.273Z,10.79
2022-10-31T06:11:36.289Z,10.79
2022-10-31T06:14:03.416Z,10.80
2022-10-31T06:16:46.125Z,10.81
2022-10-31T06:19:32.611Z,10.81
2022-10-31T06:21:59.645Z,10.83
2022-10-31T06:24:26.131Z,10.83
2022-10-31T06:26:55.249Z,10.84
2022-10-31T06:29:22.214Z,10.85
2022-10-31T06:32:00.095Z,10.87
2022-10-31T06:34:27.974Z,10.88
2022-10-31T06:36:54.760Z,10.93
2022-10-31T06:39:24.753Z,10.96
2022-10-31T06:41:51.328Z,10.99
2022-10-31T06:44:20.834Z,11.03
2022-10-31T06:46:49.961Z,11.07
2022-10-31T06:49:39.024Z,11.10
2022-10-31T06:52:12.560Z,11.15
2022-10-31T06:54:39.131Z,11.20
2022-10-31T06:57:05.802Z,11.24
2022-10-31T06:59:32.378Z,11.30
2022-10-31T07:02:16.395Z,11.35
2022-10-31T07:04:43.893Z,11.40
2022-10-31T07:07:13.790Z,11.47
2022-10-31T07:09:40.478Z,11.53
2022-10-31T07:12:09.073Z,11.59
2022-10-31T07:14:38.850Z,11.67
2022-10-31T07:17:05.965Z,11.71
2022-10-31T07:19:36.821Z,11.79
2022-10-31T07:22:03.552Z,11.85
2022-10-31T07:24:30.709Z,11.92
2022-10-31T07:27:23.073Z,12.01
2022-10-31T07:29:49.665Z,12.09
2022-10-31T07:32:17.018Z,12.15
2022-10-31T07:34:50.875Z,12.21
2022-10-31T07:37:20.982Z,12.28
2022-10-31T07:39:48.424Z,12.33
2022-10-31T07:42:14.917Z,12.42
2022-10-31T07:44:44.644Z,12.47
2022-10-31T07:47:29.634Z,12.54
2022-10-31T07:50:16.547Z,12.60
2022-10-31T07:53:02.560Z,12.66
2022-10-31T07:55:55.397Z,12.73
2022-10-31T07:58:28.484Z,12.82
2022-10-31T08:00:55.158Z,12.90
2022-10-31T08:03:31.772Z,12.99
2022-10-31T08:06:10.446Z,13.07
2022-10-31T08:09:15.210Z,13.18
2022-10-31T08:11:43.995Z,13.28
2022-10-31T08:14:10.578Z,13.38
2022-10-31T08:16:37.213Z,13.48
2022-10-31T08:19:06.219Z,13.59
2022-10-31T08:21:37.760Z,13.72
2022-10-31T08:24:05.773Z,13.83
2022-10-31T08:26:33.141Z,13.94
2022-10-31T08:28:59.875Z,14.08
2022-10-31T08:31:33.479Z,14.20
2022-10-31T08:34:20.041Z,14.31
2022-10-31T08:37:05.098Z,14.44
2022-10-31T08:39:40.075Z,14.55
2022-10-31T08:42:06.776Z,14.67
2022-10-31T08:44:33.242Z,14.78
2022-10-31T08:46:59.959Z,14.86
2022-10-31T08:49:26.512Z,14.97
2022-10-31T08:51:53.042Z,15.08
2022-10-31T08:54:21.148Z,15.08
2022-10-31T08:56:56.777Z,15.27
2022-10-31T08:59:55.362Z,15.40
2022-10-31T09:02:44.852Z,15.52
2022-10-31T09:05:13.572Z,15.64
2022-10-31T09:07:40.252Z,15.72
2022-10-31T09:10:09.815Z,15.83
2022-10-31T09:12:37.968Z,15.93
2022-10-31T09:15:42.141Z,16.04
2022-10-31T09:18:20.553Z,16.13
2022-10-31T09:21:00.050Z,16.22
2022-10-31T09:23:28.005Z,16.31
2022-10-31T09:25:55.333Z,16.39
2022-10-31T09:28:34.337Z,16.48
2022-10-31T09:31:06.412Z,16.58
2022-10-31T09:33:54.172Z,16.66
2022-10-31T09:36:40.778Z,16.73
2022-10-31T09:39:11.905Z,16.84
2022-10-31T09:41:56.250Z,16.91
2022-10-31T09:44:43.087Z,16.98
2022-10-31T09:47:26.481Z,17.06
2022-10-31T09:51:00.564Z,17.15
2022-10-31T09:53:51.263Z,17.28
2022-10-31T09:56:23.528Z,17.38
2022-10-31T09:58:59.772Z,17.45
2022-10-31T10:01:54.050Z,17.54
2022-10-31T10:04:48.784Z,17.65
2022-10-31T10:07:33.488Z,17.73
2022-10-31T10:10:57.245Z,17.84
2022-10-31T10:14:11.937Z,17.96
2022-10-31T10:17:09.133Z,18.05
2022-10-31T10:20:00.470Z,18.15
2022-10-31T10:22:40.624Z,18.26
2022-10-31T10:25:34.433Z,18.34
2022-10-31T10:28:18.201Z,18.45
2022-10-31T10:30:54.392Z,18.53
2022-10-31T10:33:25.472Z,18.61
2022-10-31T10:35:57.334Z,18.70
2022-10-31T10:38:32.877Z,18.76
2022-10-31T10:41:01.910Z,18.82
2022-10-31T10:43:36.105Z,18.89
2022-10-31T10:46:12.041Z,18.94
2022-10-31T10:48:58.890Z,19.00
2022-10-31T10:52:07.466Z,19.08
2022-10-31T10:55:00.849Z,19.16
2022-10-31T10:57:33.418Z,19.26
2022-10-31T11:00:02.170Z,19.32
2022-10-31T11:02:32.989Z,19.40
2022-10-31T11:05:02.196Z,19.47
2022-10-31T11:07:41.658Z,19.49
2022-10-31T11:10:14.420Z,19.56
2022-10-31T11:12:41.499Z,19.64
2022-10-31T11:15:19.842Z,19.68
2022-10-31T11:17:53.814Z,19.77
2022-10-31T11:20:20.490Z,19.84
2022-10-31T11:22:48.927Z,19.90
2022-10-31T11:25:26.356Z,19.97
2022-10-31T11:28:09.404Z,20.03
2022-10-31T11:30:48.350Z,20.14
2022-10-31T11:33:20.786Z,20.24
2022-10-31T11:35:50.947Z,20.33
2022-10-31T11:38:25.310Z,20.40
2022-10-31T11:41:03.983Z,20.46
2022-10-31T11:43:30.707Z,20.54
2022-10-31T11:45:57.636Z,20.59
2022-10-31T11:48:25.977Z,20.67
2022-10-31T11:50:57.746Z,20.71
2022-10-31T11:53:27.110Z,20.75
2022-10-31T11:56:22.856Z,20.78
2022-10-31T11:58:57.365Z,20.86
2022-10-31T12:01:29.612Z,20.92
2022-10-31T12:04:07.403Z,20.95
2022-10-31T12:06:39.210Z,21.02
2022-10-31T12:09:23.995Z,21.06
2022-10-31T12:12:08.817Z,21.15
2022-10-31T12:15:03.560Z,21.24
2022-10-31T12:17:53.246Z,21.31
2022-10-31T12:20:58.255Z,21.40
2022-10-31T12:23:45.975Z,21.50
2022-10-31T12:26:27.283Z,21.61
2022-10-31T12:28:56.865Z,21.70
2022-10-31T12:31:29.462Z,21.78
2022-10-31T12:34:05.131Z,21.84
2022-10-31T12:36:57.677Z,21.83
2022-10-31T12:39:42.980Z,21.89
2022-10-31T12:42:34.352Z,21.87
2022-10-31T12:45:25.650Z,21.87
2022-10-31T12:48:22.960Z,21.87
2022-10-31T12:51:16.283Z,21.85
2022-10-31T12:53:56.887Z,21.86
2022-10-31T12:56:46.626Z,21.87
2022-10-31T12:59:30.939Z,21.83
2022-10-31T13:02:04.135Z,21.83
2022-10-31T13:05:11.322Z,21.80
2022-10-31T13:07:43.557Z,21.79
2022-10-31T13:10:43.568Z,21.78
2022-10-31T13:13:31.989Z,21.78
2022-10-31T13:16:03.533Z,21.78
2022-10-31T13:18:41.399Z,21.79
2022-10-31T13:21:18.770Z,21.70
2022-10-31T13:23:51.306Z,21.83
2022-10-31T13:26:24.780Z,21.85
2022-10-31T13:29:03.213Z,21.84
2022-10-31T13:31:29.827Z,21.84
2022-10-31T13:34:04.620Z,21.84
2022-10-31T13:36:37.180Z,21.83
2022-10-31T13:39:36.121Z,21.82
2022-10-31T13:42:05.719Z,21.81
2022-10-31T13:44:38.555Z,21.80
2022-10-31T13:47:22.789Z,21.78
2022-10-31T13:49:49.420Z,21.78
2022-10-31T13:52:23.922Z,21.77
2022-10-31T13:54:52.443Z,21.74
2022-10-31T13:57:36.027Z,21.71
2022-10-31T14:00:22.867Z,21.66
2022-10-31T14:02:52.312Z,21.65
2022-10-31T14:05:36.719Z,21.64
2022-10-31T14:08:06.861Z,21.60
2022-10-31T14:10:37.742Z,21.55
2022-10-31T14:13:06.221Z,21.51
2022-10-31T14:15:33.166Z,21.46
2022-10-31T14:18:06.827Z,21.41
2022-10-31T14:20:41.546Z,21.34
2022-10-31T14:23:30.360Z,21.30
2022-10-31T14:26:18.641Z,21.22
2022-10-31T14:28:46.416Z,21.18
2022-10-31T14:31:59.483Z,21.07
2022-10-31T14:34:36.447Z,21.05
2022-10-31T14:37:11.653Z,21.01
2022-10-31T14:40:01.005Z,20.96
2022-10-31T14:43:05.256Z,20.93
2022-10-31T14:45:56.636Z,20.90
2022-10-31T14:48:51.074Z,20.86
2022-10-31T14:51:23.730Z,20.84
2022-10-31T14:53:55.898Z,20.82
2022-10-31T14:56:27.236Z,20.81
2022-10-31T14:58:57.823Z,20.80
2022-10-31T15:01:30.796Z,20.77
2022-10-31T15:04:31.030Z,20.72
2022-10-31T15:07:12.890Z,20.72
2022-10-31T15:09:40.921Z,20.71
2022-10-31T15:12:26.315Z,20.58
2022-10-31T15:14:53.351Z,20.64
2022-10-31T15:17:21.252Z,20.61
2022-10-31T15:19:48.258Z,20.56
2022-10-31T15:22:17.794Z,20.51
2022-10-31T15:24:45.934Z,20.48
2022-10-31T15:27:16.940Z,20.32
2022-10-31T15:29:55.038Z,20.34
2022-10-31T15:32:27.054Z,20.29
2022-10-31T15:34:55.381Z,20.25
2022-10-31T15:37:24.633Z,20.20
2022-10-31T15:39:52.047Z,20.13
2022-10-31T15:42:28.090Z,20.05
2022-10-31T15:45:17.575Z,19.99
2022-10-31T15:47:55.296Z,19.91
2022-10-31T15:50:27.172Z,19.85
2022-10-31T15:52:53.877Z,19.79
2022-10-31T15:55:33.108Z,19.74
2022-10-31T15:58:10.598Z,19.67
2022-10-31T16:00:38.892Z,19.60
2022-10-31T16:03:14.564Z,19.51
2022-10-31T16:05:49.878Z,19.43
2022-10-31T16:08:31.263Z,19.32
2022-10-31T16:11:00.788Z,19.24
2022-10-31T16:13:33.224Z,19.14
2022-10-31T16:19:06.579Z,18.95
2022-10-31T16:21:36.159Z,18.89
2022-10-31T16:24:06.501Z,18.80
2022-10-31T16:26:33.913Z,18.70
2022-10-31T16:29:05.577Z,18.63
2022-10-31T16:31:39.180Z,18.54
2022-10-31T16:34:26.241Z,18.44
2022-10-31T16:36:53.527Z,18.27
2022-10-31T16:39:20.114Z,18.28
2022-10-31T16:41:49.116Z,18.22
2022-10-31T16:44:19.616Z,18.13
2022-10-31T16:46:46.398Z,18.04
2022-10-31T16:49:13.474Z,17.96
2022-10-31T16:51:40.102Z,17.86
2022-10-31T16:54:06.582Z,17.77
2022-10-31T16:56:37.100Z,17.69
2022-10-31T16:59:09.819Z,17.61
2022-10-31T17:01:40.822Z,17.50
2022-10-31T17:04:11.060Z,17.41
2022-10-31T17:06:37.641Z,17.32
2022-10-31T17:09:04.232Z,17.23
2022-10-31T17:11:30.810Z,17.15
2022-10-31T17:13:57.329Z,17.08
2022-10-31T17:16:23.837Z,17.00
2022-10-31T17:18:50.528Z,16.92
2022-10-31T17:21:23.029Z,16.83
2022-10-31T17:23:51.018Z,16.75
2022-10-31T17:26:18.225Z,16.68
2022-10-31T17:28:44.694Z,16.58
2022-10-31T17:31:23.179Z,16.50
2022-10-31T17:33:50.755Z,16.44
2022-10-31T17:36:17.521Z,16.36
2022-10-31T17:38:44.436Z,16.29
2022-10-31T17:41:11.717Z,16.24
2022-10-31T17:43:38.655Z,16.17
2022-10-31T17:46:05.933Z,16.12
2022-10-31T17:48:34.916Z,16.05
2022-10-31T17:51:03.214Z,16.00
2022-10-31T17:53:31.253Z,15.94
2022-10-31T17:56:05.006Z,15.87
2022-10-31T17:58:31.605Z,15.83
2022-10-31T18:00:59.215Z,15.77
2022-10-31T18:03:26.861Z,15.71
2022-10-31T18:05:58.184Z,15.66
2022-10-31T18:08:29.060Z,15.59
2022-10-31T18:10:56.523Z,15.55
2022-10-31T18:13:23.109Z,15.48
2022-10-31T18:15:49.601Z,15.42
2022-10-31T18:18:16.537Z,15.36
2022-10-31T18:20:43.290Z,15.31
2022-10-31T18:23:10.898Z,15.25
2022-10-31T18:25:37.510Z,15.18
2022-10-31T18:28:05.313Z,15.14
2022-10-31T18:30:32.445Z,15.09
2022-10-31T18:32:58.999Z,15.02
2022-10-31T18:35:25.599Z,14.98
2022-10-31T18:37:52.334Z,14.93
2022-10-31T18:40:18.899Z,14.88
2022-10-31T18:42:45.438Z,14.84
2022-10-31T18:45:31.176Z,14.78
2022-10-31T18:47:58.933Z,14.73
2022-10-31T18:50:25.825Z,14.68
2022-10-31T18:52:52.374Z,14.62
2022-10-31T18:55:18.907Z,14.60
2022-10-31T18:57:45.488Z,14.55
2022-10-31T19:00:12.677Z,14.50
2022-10-31T19:02:39.221Z,14.45
2022-10-31T19:05:05.978Z,14.42
2022-10-31T19:07:32.590Z,14.37
2022-10-31T19:09:59.071Z,14.33
2022-10-31T19:12:25.601Z,14.29
2022-10-31T19:14:52.088Z,14.24
2022-10-31T19:17:18.631Z,14.20
2022-10-31T19:19:45.105Z,14.15
2022-10-31T19:22:11.620Z,14.11
2022-10-31T19:24:38.178Z,14.06
2022-10-31T19:27:04.624Z,14.02
2022-10-31T19:29:31.094Z,13.97
2022-10-31T19:31:57.667Z,13.94
2022-10-31T19:34:24.154Z,13.89
2022-10-31T19:36:50.650Z,13.86
2022-10-31T19:39:17.183Z,13.82
2022-10-31T19:41:43.736Z,13.77
2022-10-31T19:44:13.269Z,13.73
2022-10-31T19:46:53.557Z,13.68
2022-10-31T19:49:20.372Z,13.56
2022-10-31T19:51:46.908Z,13.60
2022-10-31T19:54:13.510Z,13.57
2022-10-31T19:56:40.143Z,13.53
2022-10-31T19:59:06.647Z,13.49
2022-10-31T20:01:33.197Z,13.46
2022-10-31T20:03:59.727Z,13.43
2022-10-31T20:06:44.387Z,13.38
2022-10-31T20:09:13.660Z,13.35
2022-10-31T20:11:41.920Z,13.33
2022-10-31T20:14:08.877Z,13.19
2022-10-31T20:16:35.375Z,13.23
2022-10-31T20:19:05.064Z,13.22
2022-10-31T20:21:35.559Z,13.18
2022-10-31T20:24:04.876Z,13.14
2022-10-31T20:26:33.187Z,13.12
2022-10-31T20:29:01.546Z,13.09
2022-10-31T20:31:30.732Z,13.06
2022-10-31T20:33:57.510Z,13.05
2022-10-31T20:36:24.033Z,13.00
2022-10-31T20:38:52.334Z,12.99
2022-10-31T20:41:19.161Z,12.94
2022-10-31T20:43:46.379Z,12.89
2022-10-31T20:46:15.859Z,12.85
2022-10-31T20:48:42.743Z,12.82
2022-10-31T20:53:42.785Z,12.74
2022-10-31T20:56:15.200Z,12.72
2022-10-31T20:58:43.266Z,12.68
2022-10-31T21:01:15.647Z,12.63
2022-10-31T21:03:42.968Z,12.60
2022-10-31T21:06:10.135Z,12.56
2022-10-31T21:08:36.938Z,12.53
2022-10-31T21:11:09.230Z,12.50
2022-10-31T21:13:40.621Z,12.50
2022-10-31T21:16:18.286Z,12.46
2022-10-31T21:18:46.052Z,12.43
2022-10-31T21:21:30.678Z,12.40
2022-10-31T21:24:01.586Z,12.37
2022-10-31T21:26:30.965Z,12.36
2022-10-31T21:28:58.876Z,12.33
2022-10-31T21:31:26.548Z,12.29
2022-10-31T21:33:53.120Z,12.26
2022-10-31T21:36:20.153Z,12.24
2022-10-31T21:38:50.492Z,12.20
2022-10-31T21:41:17.327Z,12.20
2022-10-31T21:43:45.625Z,12.18
2022-10-31T21:46:14.769Z,12.17
2022-10-31T21:48:42.259Z,12.15
2022-10-31T21:51:17.877Z,12.12
2022-10-31T21:53:44.673Z,12.12
2022-10-31T21:56:11.281Z,12.11
2022-10-31T21:58:38.680Z,12.10
2022-10-31T22:01:05.695Z,12.08
2022-10-31T22:03:37.069Z,12.07
2022-10-31T22:06:04.654Z,12.05
2022-10-31T22:08:31.212Z,12.04
2022-10-31T22:11:02.338Z,12.05
2022-10-31T22:13:33.117Z,12.04
2022-10-31T22:16:04.075Z,12.02
2022-10-31T22:18:30.812Z,12.01
2022-10-31T22:21:05.882Z,11.99
2022-10-31T22:23:32.870Z,11.98
2022-10-31T22:26:04.053Z,11.97
2022-10-31T22:28:31.573Z,11.97
2022-10-31T22:30:58.538Z,11.95
2022-10-31T22:33:25.646Z,11.94
2022-10-31T22:35:52.297Z,11.94
2022-10-31T22:38:18.735Z,11.93
2022-10-31T22:40:45.283Z,11.91
2022-10-31T22:43:11.847Z,11.91
2022-10-31T22:45:38.376Z,11.90
2022-10-31T22:48:05.268Z,11.89
2022-10-31T22:50:32.621Z,11.89
2022-10-31T22:52:59.059Z,11.87
2022-10-31T22:55:25.602Z,11.85
2022-10-31T22:57:52.074Z,11.84
2022-10-31T23:00:18.852Z,11.84
2022-10-31T23:02:45.394Z,11.82
2022-10-31T23:05:11.901Z,11.79
2022-10-31T23:07:40.171Z,11.77
2022-10-31T23:10:06.984Z,11.78
2022-10-31T23:12:33.584Z,11.74
2022-10-31T23:15:00.170Z,11.73
2022-10-31T23:17:26.715Z,11.70
2022-10-31T23:19:53.312Z,11.68
2022-10-31T23:22:19.882Z,11.67
2022-10-31T23:24:47.280Z,11.66
2022-10-31T23:27:18.369Z,11.60
2022-10-31T23:29:51.121Z,11.58
2022-10-31T23:32:27.033Z,11.58
2022-10-31T23:34:58.865Z,11.54
2022-10-31T23:37:28.429Z,11.52
2022-10-31T23:39:55.086Z,11.50
2022-10-31T23:42:22.580Z,11.49
2022-10-31T23:44:49.636Z,11.45
2022-10-31T23:47:17.065Z,11.43
2022-10-31T23:49:43.886Z,11.42
2022-10-31T23:52:11.101Z,11.40
2022-10-31T23:54:37.873Z,11.37
2022-10-31T23:57:04.806Z,11.35
2022-10-31T23:59:31.873Z,11.33
